Time;durP1;ratioP1;P1;durP2;ratioP2;P2;SDS_P1;SDS_P2;PMS_P1;PMS_P2;Temp;Humidity;BMP_temperature;BMP_pressure;BME280_temperature;BME280_humidity;BME280_pressure;Samples;Min_cycle;Max_cycle;Signal;HPM_P1;HPM_P2
2022/08/15 00:00:30;;;;;;;3.33;3.03;;;23.50;99.90;;;;;;5071632;28;20214;-69
2022/08/15 00:03:00;;;;;;;3.83;3.45;;;23.60;99.90;;;;;;5071643;28;20252;-68
2022/08/15 00:05:36;;;;;;;4.28;3.13;;;23.70;99.90;;;;;;5071868;28;20210;-68
2022/08/15 00:08:06;;;;;;;4.95;3.00;;;23.70;99.90;;;;;;5071748;28;20271;-68
2022/08/15 00:10:55;;;;;;;3.67;3.05;;;23.70;99.90;;;;;;5067043;28;20232;-67
2022/08/15 00:13:43;;;;;;;4.18;3.40;;;23.70;99.90;;;;;;5071399;28;20234;-69
2022/08/15 00:16:12;;;;;;;3.78;3.38;;;23.60;99.90;;;;;;5071683;28;20213;-68
2022/08/15 00:18:47;;;;;;;4.63;3.40;;;23.60;99.90;;;;;;5070297;28;20197;-68
2022/08/15 00:21:17;;;;;;;5.20;3.45;;;23.50;99.90;;;;;;5071888;28;20734;-68
2022/08/15 00:23:48;;;;;;;3.80;3.40;;;23.50;99.90;;;;;;5071687;28;20213;-68
2022/08/15 00:26:16;;;;;;;4.78;3.53;;;23.50;99.90;;;;;;5071492;28;20206;-68
2022/08/15 00:29:04;;;;;;;4.68;3.70;;;23.50;99.90;;;;;;5068336;28;20194;-68
2022/08/15 00:31:35;;;;;;;3.85;3.45;;;23.50;99.90;;;;;;5071638;28;20229;-67
2022/08/15 00:34:13;;;;;;;4.55;3.50;;;23.70;99.90;;;;;;5071638;28;20666;-69
2022/08/15 00:37:00;;;;;;;7.38;4.03;;;23.70;99.90;;;;;;5068250;28;20604;-68
2022/08/15 00:39:31;;;;;;;4.88;3.72;;;23.80;99.90;;;;;;5071697;28;20313;-68
2022/08/15 00:42:06;;;;;;;4.55;3.25;;;23.80;99.90;;;;;;5054590;28;20287;-68
2022/08/15 00:44:44;;;;;;;5.05;3.30;;;23.70;99.90;;;;;;5070260;28;20275;-68
2022/08/15 00:47:27;;;;;;;4.95;4.13;;;23.70;99.90;;;;;;5071107;28;20198;-69
2022/08/15 00:49:57;;;;;;;4.13;3.72;;;23.80;99.90;;;;;;5071461;28;20199;-69
2022/08/15 00:52:31;;;;;;;5.72;3.50;;;23.90;99.90;;;;;;5071675;28;20565;-69
2022/08/15 00:55:11;;;;;;;4.15;3.60;;;23.70;99.90;;;;;;5064480;28;20717;-68
2022/08/15 00:57:45;;;;;;;4.53;3.50;;;23.60;99.90;;;;;;5071586;28;20441;-69
2022/08/15 01:00:32;;;;;;;4.43;3.80;;;23.60;99.90;;;;;;5071326;28;20244;-68
2022/08/15 01:03:18;;;;;;;5.90;3.80;;;23.80;99.90;;;;;;5065490;28;20272;-68
2022/08/15 01:05:49;;;;;;;4.55;3.55;;;23.80;99.90;;;;;;5068036;28;20265;-68
2022/08/15 01:08:22;;;;;;;6.20;3.40;;;23.70;99.90;;;;;;5051451;28;20643;-68
2022/08/15 01:11:28;;;;;;;4.00;3.60;;;23.70;99.90;;;;;;5051837;28;20246;-68
2022/08/15 01:14:01;;;;;;;4.32;3.28;;;23.70;99.90;;;;;;5051585;28;20238;-68
2022/08/15 01:16:49;;;;;;;4.80;3.80;;;23.70;99.90;;;;;;5051218;28;20218;-68
2022/08/15 01:19:45;;;;;;;4.13;3.30;;;23.60;99.90;;;;;;5051390;28;20201;-68
2022/08/15 01:22:33;;;;;;;4.88;3.60;;;23.40;99.90;;;;;;5039859;28;20211;-66
2022/08/15 01:25:17;;;;;;;3.75;3.45;;;23.40;99.90;;;;;;5050696;28;20199;-68
2022/08/15 01:28:13;;;;;;;4.70;3.58;;;23.50;99.90;;;;;;5051232;28;20308;-66
2022/08/15 01:30:53;;;;;;;4.85;3.20;;;23.60;99.90;;;;;;5051613;28;20194;-68
2022/08/15 01:33:32;;;;;;;4.13;3.10;;;23.60;99.90;;;;;;5068980;28;20198;-68
2022/08/15 01:35:59;;;;;;;4.32;3.33;;;23.70;99.90;;;;;;5052929;28;20260;-68
2022/08/15 01:38:30;;;;;;;3.30;3.00;;;23.70;99.90;;;;;;5071601;28;20626;-68
2022/08/15 01:41:37;;;;;;;4.07;3.08;;;23.70;99.90;;;;;;5071238;28;20210;-68
2022/08/15 01:44:26;;;;;;;3.55;2.92;;;23.60;99.90;;;;;;5050581;28;20190;-68
2022/08/15 01:47:12;;;;;;;3.25;2.92;;;23.70;99.90;;;;;;5050991;28;20224;-69
2022/08/15 01:50:07;;;;;;;4.25;3.10;;;23.60;99.90;;;;;;5050903;28;20198;-69
2022/08/15 01:53:15;;;;;;;6.15;2.80;;;23.70;99.90;;;;;;5042073;28;20209;-68
2022/08/15 01:55:48;;;;;;;4.28;2.65;;;23.70;99.90;;;;;;5051549;28;20259;-68
2022/08/15 01:58:21;;;;;;;3.33;2.83;;;23.70;99.90;;;;;;5070850;28;20194;-69
2022/08/15 02:00:54;;;;;;;3.28;2.97;;;23.70;99.90;;;;;;5055644;28;20219;-68
2022/08/15 02:03:33;;;;;;;4.25;2.90;;;23.60;99.90;;;;;;5050811;28;20195;-69
2022/08/15 02:06:22;;;;;;;3.83;2.70;;;23.70;99.90;;;;;;5050536;28;20218;-68
2022/08/15 02:09:05;;;;;;;4.30;2.60;;;23.80;99.90;;;;;;5050230;28;20195;-68
2022/08/15 02:11:52;;;;;;;3.97;2.60;;;23.80;99.90;;;;;;5050549;28;20255;-68
2022/08/15 02:14:30;;;;;;;4.82;3.28;;;23.80;99.90;;;;;;5050683;28;20199;-68
2022/08/15 02:17:05;;;;;;;3.17;2.75;;;23.70;99.90;;;;;;5049787;28;20275;-68
2022/08/15 02:19:32;;;;;;;5.43;2.90;;;23.70;99.90;;;;;;5050955;28;20249;-68
2022/08/15 02:22:12;;;;;;;3.35;2.78;;;23.60;99.90;;;;;;5050494;28;20248;-68
2022/08/15 02:24:56;;;;;;;5.32;2.75;;;23.60;99.90;;;;;;5050380;28;20609;-68
2022/08/15 02:27:27;;;;;;;2.50;2.30;;;23.60;99.90;;;;;;5050341;28;20198;-68
2022/08/15 02:29:55;;;;;;;4.25;2.70;;;23.60;99.90;;;;;;5050009;28;20278;-68
2022/08/15 02:32:23;;;;;;;3.08;2.53;;;23.60;99.90;;;;;;5050475;28;20191;-68
2022/08/15 02:34:57;;;;;;;7.47;2.95;;;23.60;99.90;;;;;;5060430;28;20198;-68
2022/08/15 02:37:24;;;;;;;4.10;3.03;;;23.60;99.90;;;;;;5054811;28;20290;-68
2022/08/15 02:39:52;;;;;;;4.38;2.88;;;23.50;99.90;;;;;;5049977;28;20203;-68
2022/08/15 02:42:24;;;;;;;3.53;2.67;;;23.40;99.90;;;;;;5050093;28;20246;-68
2022/08/15 02:44:51;;;;;;;3.40;2.78;;;23.30;99.90;;;;;;5060299;28;20197;-68
2022/08/15 02:47:18;;;;;;;4.28;2.70;;;23.30;99.90;;;;;;5037710;28;20195;-68
2022/08/15 02:49:50;;;;;;;2.70;2.28;;;23.30;99.90;;;;;;5050022;28;20257;-69
2022/08/15 02:52:17;;;;;;;3.80;2.50;;;23.40;99.90;;;;;;5050089;28;20199;-68
2022/08/15 02:54:47;;;;;;;5.85;2.85;;;23.30;99.90;;;;;;5049258;28;20198;-68
2022/08/15 02:57:30;;;;;;;6.32;3.00;;;23.30;99.90;;;;;;5050281;28;20195;-68
2022/08/15 03:00:17;;;;;;;4.05;2.72;;;23.40;99.90;;;;;;5049992;28;20203;-67
2022/08/15 03:03:01;;;;;;;4.50;2.70;;;23.40;99.90;;;;;;5049993;28;20242;-68
2022/08/15 03:05:31;;;;;;;3.88;2.50;;;23.30;99.90;;;;;;5056363;28;20222;-68
2022/08/15 03:07:58;;;;;;;3.63;2.75;;;23.20;99.90;;;;;;5069866;28;20712;-68
2022/08/15 03:10:27;;;;;;;3.45;2.90;;;23.10;99.90;;;;;;5069966;28;20193;-68
2022/08/15 03:13:00;;;;;;;4.82;2.78;;;23.10;99.90;;;;;;5052280;28;20201;-67
2022/08/15 03:15:52;;;;;;;3.92;2.92;;;23.00;99.90;;;;;;5049627;28;20219;-68
2022/08/15 03:18:26;;;;;;;5.70;3.10;;;23.00;99.90;;;;;;5050304;28;20194;-68
2022/08/15 03:20:58;;;;;;;3.90;2.92;;;23.00;99.90;;;;;;5049797;28;20228;-68
2022/08/15 03:23:27;;;;;;;4.05;3.05;;;22.90;99.90;;;;;;5050124;28;20191;-68
2022/08/15 03:26:09;;;;;;;4.75;3.00;;;23.00;99.90;;;;;;5049890;28;20264;-66
2022/08/15 03:28:56;;;;;;;3.10;2.80;;;23.00;99.90;;;;;;5049804;28;20265;-67
2022/08/15 03:31:31;;;;;;;3.25;2.95;;;22.90;99.90;;;;;;5049803;28;20198;-69
2022/08/15 03:34:12;;;;;;;3.30;3.00;;;22.80;99.90;;;;;;5049868;28;20217;-68
2022/08/15 03:36:45;;;;;;;4.68;3.45;;;22.70;99.90;;;;;;5049184;28;20246;-68
2022/08/15 03:39:19;;;;;;;4.85;3.03;;;22.80;99.90;;;;;;5050025;28;20550;-66
2022/08/15 03:41:46;;;;;;;5.15;3.28;;;22.80;99.90;;;;;;5049626;28;20234;-68
2022/08/15 03:44:23;;;;;;;4.03;3.05;;;22.80;99.90;;;;;;5049659;28;20249;-68
2022/08/15 03:46:54;;;;;;;5.75;3.00;;;22.70;99.90;;;;;;5049233;28;20211;-68
2022/08/15 03:49:22;;;;;;;6.15;3.42;;;22.70;99.90;;;;;;5049631;28;20218;-68
2022/08/15 03:52:10;;;;;;;6.45;3.00;;;22.60;99.90;;;;;;5049744;28;20199;-67
2022/08/15 03:54:37;;;;;;;6.65;2.80;;;22.60;99.90;;;;;;5049854;28;20202;-68
2022/08/15 03:57:08;;;;;;;6.28;3.00;;;22.50;99.90;;;;;;5049339;28;20760;-69
2022/08/15 03:59:35;;;;;;;4.82;2.83;;;22.40;99.90;;;;;;5049440;28;20199;-68
2022/08/15 04:02:10;;;;;;;5.53;3.03;;;22.40;99.90;;;;;;5049954;28;20591;-68
2022/08/15 04:04:55;;;;;;;4.07;3.00;;;22.40;99.90;;;;;;5049800;28;20293;-68
2022/08/15 04:07:26;;;;;;;4.75;3.17;;;22.50;99.90;;;;;;5053157;28;20191;-68
2022/08/15 04:10:17;;;;;;;6.35;3.40;;;22.30;99.90;;;;;;5053987;28;20670;-69
2022/08/15 04:13:10;;;;;;;5.57;3.53;;;22.30;99.90;;;;;;5054113;28;20199;-68
2022/08/15 04:15:38;;;;;;;4.07;3.10;;;22.30;99.90;;;;;;5053479;28;20214;-68
2022/08/15 04:18:06;;;;;;;4.43;3.00;;;22.30;99.90;;;;;;5054656;28;20237;-68
2022/08/15 04:20:55;;;;;;;6.70;3.38;;;22.30;99.90;;;;;;5052626;28;20748;-68
2022/08/15 04:23:22;;;;;;;5.05;3.53;;;22.30;99.90;;;;;;5052760;28;20659;-68
2022/08/15 04:25:51;;;;;;;5.85;3.30;;;22.20;99.90;;;;;;5052424;28;20706;-68
2022/08/15 04:28:22;;;;;;;4.07;3.20;;;22.20;99.90;;;;;;5052966;28;20197;-68
2022/08/15 04:31:13;;;;;;;4.55;3.47;;;22.20;99.90;;;;;;5052736;28;20260;-69
2022/08/15 04:33:41;;;;;;;4.68;2.90;;;22.20;99.90;;;;;;5052802;28;20199;-68
2022/08/15 04:36:28;;;;;;;5.82;3.45;;;22.20;99.90;;;;;;5052218;28;20265;-68
2022/08/15 04:38:57;;;;;;;5.30;3.30;;;22.20;99.90;;;;;;5052193;28;20609;-68
2022/08/15 04:41:30;;;;;;;7.13;3.88;;;22.20;99.90;;;;;;5052665;28;20254;-68
2022/08/15 04:44:03;;;;;;;4.32;3.17;;;22.30;99.90;;;;;;5052482;28;20194;-67
2022/08/15 04:46:29;;;;;;;5.72;3.20;;;22.30;99.90;;;;;;5051943;28;20212;-69
2022/08/15 04:48:56;;;;;;;3.90;3.15;;;22.40;99.90;;;;;;5052252;28;20217;-68
2022/08/15 04:51:24;;;;;;;5.22;3.08;;;22.30;99.90;;;;;;5052267;28;20195;-68
2022/08/15 04:54:02;;;;;;;5.40;3.35;;;22.30;99.90;;;;;;5052414;28;20203;-67
2022/08/15 04:56:29;;;;;;;7.00;3.08;;;22.40;99.90;;;;;;5052166;28;20246;-68
2022/08/15 04:59:16;;;;;;;8.35;3.10;;;22.40;99.90;;;;;;5051969;28;20618;-69
2022/08/15 05:02:05;;;;;;;3.53;3.20;;;22.40;99.90;;;;;;5051944;28;20207;-68
2022/08/15 05:04:52;;;;;;;3.65;2.90;;;22.40;99.90;;;;;;5052004;28;20276;-67
2022/08/15 05:07:19;;;;;;;3.60;3.03;;;22.50;99.90;;;;;;5034059;28;20191;-66
2022/08/15 05:09:46;;;;;;;5.13;3.30;;;22.50;99.90;;;;;;5052067;28;20195;-68
2022/08/15 05:12:30;;;;;;;8.77;3.17;;;22.50;99.90;;;;;;5052175;28;20199;-67
2022/08/15 05:15:02;;;;;;;5.10;2.97;;;22.50;99.90;;;;;;5051459;28;20199;-68
2022/08/15 05:17:29;;;;;;;7.25;3.13;;;22.50;99.90;;;;;;5050946;28;20286;-67
2022/08/15 05:20:18;;;;;;;4.70;3.00;;;22.50;99.90;;;;;;5052170;28;20257;-68
2022/08/15 05:22:55;;;;;;;4.90;3.00;;;22.50;99.90;;;;;;5051696;28;20218;-70
2022/08/15 05:25:31;;;;;;;3.38;2.67;;;22.60;99.90;;;;;;5051249;28;20800;-68
2022/08/15 05:27:59;;;;;;;4.55;2.97;;;22.70;99.90;;;;;;5052119;28;20728;-68
2022/08/15 05:30:25;;;;;;;4.07;3.10;;;22.60;99.90;;;;;;5033827;28;20213;-68
2022/08/15 05:33:11;;;;;;;5.03;3.17;;;22.70;99.90;;;;;;5051126;28;20639;-67
2022/08/15 05:35:43;;;;;;;5.18;3.25;;;22.70;99.90;;;;;;5067130;28;20221;-68
2022/08/15 05:38:21;;;;;;;3.22;2.88;;;22.70;99.90;;;;;;5051527;28;20256;-68
2022/08/15 05:41:11;;;;;;;4.40;3.10;;;22.70;99.90;;;;;;5051319;28;20198;-68
2022/08/15 05:44:12;;;;;;;5.25;3.22;;;22.70;99.90;;;;;;5050858;28;20190;-68
2022/08/15 05:47:10;;;;;;;5.93;2.90;;;22.70;99.90;;;;;;5050927;28;20249;-66
2022/08/15 05:50:14;;;;;;;4.22;2.53;;;22.80;99.90;;;;;;5051083;28;20252;-68
2022/08/15 05:53:14;;;;;;;9.25;3.20;;;22.80;99.90;;;;;;5054606;28;20194;-68
2022/08/15 05:56:04;;;;;;;3.97;2.90;;;23.00;99.90;;;;;;5050709;28;20249;-68
2022/08/15 05:58:54;;;;;;;4.68;3.03;;;23.10;99.90;;;;;;5051063;28;20209;-67
2022/08/15 06:01:32;;;;;;;4.10;2.83;;;23.10;99.90;;;;;;5050692;28;20241;-68
2022/08/15 06:04:13;;;;;;;3.50;2.90;;;23.00;99.90;;;;;;5053721;28;20202;-69
2022/08/15 06:06:58;;;;;;;6.53;3.22;;;23.00;99.90;;;;;;5065341;28;20219;-68
2022/08/15 06:09:38;;;;;;;5.07;3.20;;;22.90;99.90;;;;;;5050844;28;20205;-67
2022/08/15 06:12:14;;;;;;;5.93;2.95;;;22.90;99.90;;;;;;5050699;28;20286;-68
2022/08/15 06:14:59;;;;;;;6.20;2.88;;;23.00;99.90;;;;;;5049817;28;20618;-68
2022/08/15 06:17:42;;;;;;;10.93;3.90;;;23.20;99.90;;;;;;5032758;28;20208;-68
2022/08/15 06:20:19;;;;;;;6.75;3.20;;;23.10;99.90;;;;;;5050852;28;20256;-68
2022/08/15 06:23:15;;;;;;;11.25;3.38;;;23.20;99.90;;;;;;5050228;28;20219;-68
2022/08/15 06:25:59;;;;;;;5.47;3.33;;;23.40;99.90;;;;;;5050005;28;20297;-68
2022/08/15 06:29:03;;;;;;;5.50;3.25;;;23.50;99.90;;;;;;5050448;28;20268;-68
2022/08/15 06:31:40;;;;;;;4.45;3.33;;;23.50;99.90;;;;;;5057732;28;20280;-68
2022/08/15 06:34:27;;;;;;;5.43;3.42;;;23.60;99.90;;;;;;5055043;28;20191;-68
2022/08/15 06:37:25;;;;;;;5.25;3.30;;;23.60;99.90;;;;;;5050568;28;20199;-68
2022/08/15 06:39:52;;;;;;;4.75;3.03;;;23.70;99.90;;;;;;5050032;28;20198;-68
2022/08/15 06:42:34;;;;;;;5.00;2.92;;;23.90;99.90;;;;;;5050268;28;20219;-68
2022/08/15 06:45:10;;;;;;;7.55;3.25;;;24.00;99.90;;;;;;5049924;28;20292;-69
2022/08/15 06:47:37;;;;;;;6.25;3.35;;;24.20;99.90;;;;;;5050060;28;20194;-69
2022/08/15 06:50:19;;;;;;;7.25;3.10;;;24.30;99.90;;;;;;5050059;28;20226;-68
2022/08/15 06:52:54;;;;;;;6.75;2.95;;;24.40;99.90;;;;;;5050168;28;20198;-68
2022/08/15 06:55:35;;;;;;;5.43;3.03;;;24.40;99.90;;;;;;5050121;28;20297;-67
2022/08/15 06:58:10;;;;;;;5.10;3.30;;;24.60;99.90;;;;;;5050401;28;20221;-68
2022/08/15 07:01:23;;;;;;;5.60;3.00;;;24.60;99.90;;;;;;5052065;28;20655;-69
2022/08/15 07:04:19;;;;;;;7.80;2.90;;;24.60;99.90;;;;;;5049914;28;20195;-68
2022/08/15 07:06:59;;;;;;;3.83;2.95;;;24.70;99.90;;;;;;5049862;28;20210;-68
2022/08/15 07:09:54;;;;;;;6.50;3.13;;;24.80;99.90;;;;;;5050113;28;20198;-67
2022/08/15 07:12:56;;;;;;;7.60;2.90;;;25.00;99.90;;;;;;5050213;28;20256;-69
2022/08/15 07:15:37;;;;;;;5.25;3.30;;;25.30;99.90;;;;;;5059847;28;20221;-68
2022/08/15 07:18:39;;;;;;;5.47;3.38;;;25.60;99.90;;;;;;5042552;28;20290;-69
2022/08/15 07:21:08;;;;;;;4.35;2.90;;;25.80;99.90;;;;;;5050021;28;20233;-69
2022/08/15 07:24:04;;;;;;;4.70;3.00;;;25.90;99.90;;;;;;5050084;28;20313;-69
2022/08/15 07:27:16;;;;;;;3.97;3.03;;;25.90;99.90;;;;;;5065439;28;20272;-69
2022/08/15 07:29:47;;;;;;;9.02;3.15;;;25.80;99.90;;;;;;5048663;28;20245;-70
2022/08/15 07:32:50;;;;;;;6.53;3.28;;;25.80;99.90;;;;;;5050733;28;20398;-69
2022/08/15 07:35:26;;;;;;;8.02;2.95;;;25.70;99.90;;;;;;5047056;28;20244;-70
2022/08/15 07:38:03;;;;;;;6.25;3.35;;;25.70;99.90;;;;;;5071661;28;20677;-69
2022/08/15 07:40:51;;;;;;;5.82;2.95;;;25.30;99.90;;;;;;5054277;28;20685;-69
2022/08/15 07:43:38;;;;;;;5.65;2.97;;;25.30;99.90;;;;;;5053769;28;20218;-68
2022/08/15 07:46:16;;;;;;;4.85;2.95;;;25.20;99.90;;;;;;5073158;28;20206;-68
2022/08/15 07:49:07;;;;;;;6.82;3.40;;;25.20;99.90;;;;;;5073276;28;20269;-69
2022/08/15 07:52:00;;;;;;;6.40;3.15;;;25.30;99.90;;;;;;5061081;28;20187;-68
2022/08/15 07:54:31;;;;;;;4.40;2.90;;;25.20;99.90;;;;;;5053331;28;20206;-68
2022/08/15 07:57:03;;;;;;;6.13;3.33;;;25.20;99.90;;;;;;5052709;28;20276;-68
2022/08/15 07:59:36;;;;;;;5.53;3.00;;;25.10;99.90;;;;;;5052890;28;20693;-68
2022/08/15 08:02:32;;;;;;;5.93;3.10;;;25.10;99.90;;;;;;5052807;28;20325;-69
2022/08/15 08:05:04;;;;;;;5.90;2.97;;;25.20;99.90;;;;;;5055623;28;20625;-68
2022/08/15 08:07:40;;;;;;;7.20;2.80;;;25.20;99.90;;;;;;5073460;28;20286;-68
2022/08/15 08:10:27;;;;;;;6.80;3.20;;;25.20;99.90;;;;;;5061648;28;20233;-68
2022/08/15 08:13:06;;;;;;;4.15;2.75;;;25.30;99.90;;;;;;5052876;28;20195;-69
2022/08/15 08:16:18;;;;;;;5.55;3.40;;;25.30;99.90;;;;;;5052398;28;20297;-68
2022/08/15 08:19:17;;;;;;;4.10;3.10;;;25.10;99.90;;;;;;5053680;28;20195;-69
2022/08/15 08:22:30;;;;;;;7.15;3.38;;;25.00;99.90;;;;;;5072879;28;20208;-67
2022/08/15 08:25:09;;;;;;;6.47;3.38;;;25.00;99.90;;;;;;5035693;28;20201;-68
2022/08/15 08:27:49;;;;;;;4.53;3.05;;;25.20;99.90;;;;;;5062300;28;20195;-68
2022/08/15 08:30:30;;;;;;;7.70;3.10;;;25.50;99.90;;;;;;5052604;28;20199;-68
2022/08/15 08:33:17;;;;;;;6.18;3.05;;;25.90;99.90;;;;;;5036898;28;20613;-68
2022/08/15 08:35:59;;;;;;;4.95;3.28;;;26.30;99.90;;;;;;5052106;28;20272;-68
2022/08/15 08:38:50;;;;;;;5.40;3.33;;;26.50;99.90;;;;;;5035045;28;20278;-69
2022/08/15 08:42:02;;;;;;;9.57;2.92;;;26.80;99.90;;;;;;5052956;28;20194;-68
2022/08/15 08:44:59;;;;;;;4.82;2.78;;;27.00;99.90;;;;;;5050015;28;20202;-69
2022/08/15 08:48:01;;;;;;;5.85;2.90;;;27.30;99.90;;;;;;5052569;28;20225;-69
2022/08/15 08:50:43;;;;;;;9.10;3.08;;;27.30;99.90;;;;;;4997466;28;20209;-69
2022/08/15 08:53:29;;;;;;;4.15;2.83;;;27.20;99.90;;;;;;5052609;28;20258;-69
2022/08/15 08:56:14;;;;;;;9.85;3.10;;;27.00;99.90;;;;;;5051840;28;20793;-69
2022/08/15 08:59:16;;;;;;;3.22;2.80;;;27.10;99.90;;;;;;5051978;28;20692;-69
2022/08/15 09:01:47;;;;;;;4.78;3.00;;;27.00;99.90;;;;;;5036995;28;20547;-68
2022/08/15 09:04:23;;;;;;;5.35;2.95;;;27.10;99.90;;;;;;5052080;28;20219;-69
2022/08/15 09:06:52;;;;;;;3.35;3.03;;;27.40;99.90;;;;;;5051519;28;20222;-68
2022/08/15 09:09:35;;;;;;;8.07;3.10;;;27.20;99.90;;;;;;5052185;28;20191;-69
2022/08/15 09:15:07;;;;;;;4.00;2.90;;;26.60;99.90;;;;;;5051664;28;20199;-68
2022/08/15 09:17:47;;;;;;;6.10;2.60;;;26.70;99.90;;;;;;5063282;28;20255;-69
2022/08/15 09:20:33;;;;;;;4.55;2.92;;;26.60;99.90;;;;;;5054185;28;20190;-69
2022/08/15 09:23:04;;;;;;;4.43;2.72;;;26.70;99.90;;;;;;5071040;28;20226;-68
2022/08/15 09:25:33;;;;;;;6.85;2.65;;;26.40;99.90;;;;;;5069782;28;20206;-68
2022/08/15 09:28:21;;;;;;;12.23;4.28;;;26.10;99.90;;;;;;5069612;28;20205;-69
2022/08/15 09:31:05;;;;;;;3.20;2.85;;;25.80;99.90;;;;;;5053059;28;20222;-68
2022/08/15 09:33:53;;;;;;;5.38;2.78;;;25.50;99.90;;;;;;5051697;28;20658;-69
2022/08/15 09:36:46;;;;;;;9.38;4.25;;;25.70;99.90;;;;;;5051764;28;20246;-68
2022/08/15 09:39:28;;;;;;;4.25;2.80;;;26.00;99.90;;;;;;5046224;28;20275;-68
2022/08/15 09:42:13;;;;;;;3.70;2.80;;;26.00;99.90;;;;;;5052098;28;20199;-69
2022/08/15 09:45:18;;;;;;;4.68;2.95;;;25.90;99.90;;;;;;5050903;28;20268;-68
2022/08/15 09:48:30;;;;;;;4.63;2.90;;;26.20;99.90;;;;;;5051094;28;20724;-69
2022/08/15 09:51:26;;;;;;;3.58;2.90;;;26.90;99.90;;;;;;5033562;28;20665;-68
2022/08/15 09:54:20;;;;;;;5.75;3.08;;;26.70;99.90;;;;;;5032864;28;20194;-67
2022/08/15 09:57:31;;;;;;;3.95;2.70;;;26.80;99.90;;;;;;5050619;28;20214;-68
2022/08/15 10:00:15;;;;;;;4.88;3.03;;;27.10;99.90;;;;;;5050841;28;20194;-70
2022/08/15 10:02:49;;;;;;;6.65;2.95;;;27.50;99.90;;;;;;5050850;28;20652;-69
2022/08/15 10:05:39;;;;;;;3.00;2.70;;;27.60;99.90;;;;;;5049684;28;20732;-69
2022/08/15 10:08:08;;;;;;;5.50;3.08;;;27.60;99.90;;;;;;5050681;28;20191;-69
2022/08/15 10:10:34;;;;;;;3.95;3.08;;;27.70;99.90;;;;;;5050630;28;20199;-69
2022/08/15 10:13:25;;;;;;;4.50;2.72;;;27.80;99.90;;;;;;5050620;28;20199;-69
2022/08/15 10:15:56;;;;;;;3.38;2.83;;;27.90;99.90;;;;;;5058624;28;20953;-69
2022/08/15 10:18:23;;;;;;;4.78;2.97;;;27.70;99.90;;;;;;5051156;28;20195;-69
2022/08/15 10:21:20;;;;;;;4.40;3.70;;;27.40;99.90;;;;;;5050327;28;20570;-69
2022/08/15 10:23:52;;;;;;;3.03;2.72;;;27.20;99.90;;;;;;5050674;28;20214;-69
2022/08/15 10:26:25;;;;;;;6.57;2.92;;;27.40;99.90;;;;;;5050434;28;20246;-69
2022/08/15 10:29:09;;;;;;;5.10;3.08;;;28.00;99.90;;;;;;5050227;28;20194;-69
2022/08/15 10:31:41;;;;;;;3.30;2.72;;;28.70;99.90;;;;;;5035397;28;20274;-69
2022/08/15 10:34:37;;;;;;;4.10;2.90;;;28.20;99.90;;;;;;5050558;28;20218;-69
2022/08/15 10:37:16;;;;;;;5.05;3.30;;;27.90;99.90;;;;;;5049879;28;20268;-68
2022/08/15 10:40:07;;;;;;;3.70;2.63;;;27.80;99.90;;;;;;5058236;28;20212;-69
2022/08/15 10:43:08;;;;;;;4.95;2.90;;;28.20;99.90;;;;;;5070300;28;20204;-69
2022/08/15 10:45:55;;;;;;;3.58;2.60;;;28.60;99.90;;;;;;5058188;28;20206;-68
2022/08/15 10:48:51;;;;;;;4.45;3.10;;;28.60;99.90;;;;;;5050351;28;20190;-69
2022/08/15 10:51:46;;;;;;;3.60;3.30;;;28.20;99.90;;;;;;5041704;28;20191;-69
2022/08/15 10:54:16;;;;;;;4.43;3.20;;;27.90;99.90;;;;;;5049961;28;20195;-69
2022/08/15 10:56:44;;;;;;;4.93;3.30;;;27.20;99.90;;;;;;5049526;28;20215;-68
2022/08/15 10:59:44;;;;;;;3.33;3.03;;;26.70;99.90;;;;;;5035184;28;20728;-67
2022/08/15 11:02:43;;;;;;;5.13;3.28;;;27.00;99.90;;;;;;5050072;28;20626;-69
2022/08/15 11:05:30;;;;;;;4.35;3.38;;;27.20;99.90;;;;;;5049689;28;20214;-69
2022/08/15 11:07:56;;;;;;;4.88;3.78;;;27.20;99.90;;;;;;5049945;28;20214;-69
2022/08/15 11:10:32;;;;;;;5.20;3.42;;;27.60;99.90;;;;;;5049832;28;20197;-69
2022/08/15 11:13:07;;;;;;;6.07;3.92;;;28.40;99.90;;;;;;5049594;28;20222;-69
2022/08/15 11:15:54;;;;;;;4.15;3.15;;;28.90;99.90;;;;;;5051357;28;20238;-68
2022/08/15 11:18:33;;;;;;;6.97;4.05;;;28.10;99.90;;;;;;5053937;28;20412;-69
2022/08/15 11:21:26;;;;;;;4.70;3.33;;;28.00;99.90;;;;;;5053552;28;20557;-69
2022/08/15 11:23:58;;;;;;;7.93;2.92;;;28.20;99.90;;;;;;5055196;28;20222;-69
2022/08/15 11:26:32;;;;;;;3.20;2.90;;;28.50;99.90;;;;;;5073660;28;20222;-69
2022/08/15 11:29:22;;;;;;;6.85;4.15;;;28.60;99.90;;;;;;5073950;28;20707;-69
2022/08/15 11:31:58;;;;;;;5.63;4.18;;;28.30;99.90;;;;;;5064693;28;20202;-69
2022/08/15 11:34:41;;;;;;;4.70;3.58;;;28.40;99.90;;;;;;5053640;28;20205;-69
2022/08/15 11:37:23;;;;;;;5.28;3.45;;;28.10;99.90;;;;;;5053384;28;20195;-69
2022/08/15 11:40:26;;;;;;;4.00;3.00;;;27.50;99.90;;;;;;5053182;28;20198;-69
2022/08/15 11:42:53;;;;;;;3.55;3.25;;;27.10;99.90;;;;;;5048185;28;20194;-69
2022/08/15 11:45:41;;;;;;;4.70;3.20;;;26.70;99.90;;;;;;5053209;28;20214;-69
2022/08/15 11:48:22;;;;;;;4.47;3.25;;;26.20;99.90;;;;;;5053278;28;20194;-68
2022/08/15 11:51:21;;;;;;;3.65;3.20;;;25.80;99.90;;;;;;5053373;28;20348;-68
2022/08/15 11:54:09;;;;;;;3.78;3.10;;;25.80;99.90;;;;;;5053294;28;20195;-69
2022/08/15 11:57:00;;;;;;;5.63;3.35;;;26.10;99.90;;;;;;5052681;28;20709;-69
2022/08/15 11:59:39;;;;;;;6.40;3.17;;;26.30;99.90;;;;;;5053702;28;20198;-68
2022/08/15 12:02:18;;;;;;;5.30;3.70;;;26.20;99.90;;;;;;5053070;28;20195;-69
2022/08/15 12:05:09;;;;;;;6.93;3.50;;;25.90;99.90;;;;;;5052576;28;20584;-69
2022/08/15 12:07:59;;;;;;;6.97;3.55;;;26.10;99.90;;;;;;5053218;28;20729;-69
2022/08/15 12:10:46;;;;;;;7.22;3.72;;;25.80;99.90;;;;;;5053051;28;20240;-67
2022/08/15 12:13:35;;;;;;;3.38;3.08;;;26.00;99.90;;;;;;5052740;28;20674;-70
2022/08/15 12:16:02;;;;;;;6.88;4.10;;;26.30;99.90;;;;;;5063496;28;20218;-68
2022/08/15 12:18:49;;;;;;;3.67;3.28;;;26.70;99.90;;;;;;5072961;28;20204;-69
2022/08/15 12:21:21;;;;;;;7.03;3.50;;;27.00;99.90;;;;;;5072938;28;20190;-69
2022/08/15 12:23:54;;;;;;;4.18;3.67;;;27.30;99.90;;;;;;5064617;28;20250;-70
2022/08/15 12:26:25;;;;;;;5.13;3.35;;;27.40;99.90;;;;;;5052446;28;20215;-70
2022/08/15 12:29:11;;;;;;;4.18;3.30;;;27.30;99.90;;;;;;5053218;28;20553;-70
2022/08/15 12:31:41;;;;;;;3.83;3.40;;;27.40;99.90;;;;;;5052627;28;20257;-69
2022/08/15 12:34:14;;;;;;;3.90;2.85;;;27.60;99.90;;;;;;5052182;28;20286;-70
2022/08/15 12:36:56;;;;;;;3.65;2.95;;;27.90;99.90;;;;;;5052107;28;20241;-70
2022/08/15 12:39:55;;;;;;;4.50;3.17;;;28.20;99.90;;;;;;5052509;28;20191;-70
2022/08/15 12:42:26;;;;;;;4.28;3.10;;;28.60;99.90;;;;;;5051912;28;20737;-67
2022/08/15 12:45:16;;;;;;;5.32;3.20;;;28.80;99.90;;;;;;5043300;28;20621;-69
2022/08/15 12:47:44;;;;;;;6.50;3.35;;;28.60;99.90;;;;;;5052310;28;20202;-69
2022/08/15 12:50:31;;;;;;;5.00;4.07;;;28.30;99.90;;;;;;5052100;28;20195;-69
2022/08/15 12:53:00;;;;;;;5.55;3.30;;;28.10;99.90;;;;;;5051831;28;20655;-69
2022/08/15 12:55:34;;;;;;;10.02;3.92;;;28.20;99.90;;;;;;5051856;28;20222;-69
2022/08/15 12:58:05;;;;;;;4.72;3.30;;;28.30;99.90;;;;;;5052194;28;20199;-69
2022/08/15 13:00:32;;;;;;;3.80;3.10;;;27.90;99.90;;;;;;5051859;28;20191;-69
2022/08/15 13:03:23;;;;;;;6.35;3.13;;;28.10;99.90;;;;;;5051755;28;20221;-69
2022/08/15 13:06:11;;;;;;;3.25;2.90;;;28.50;99.90;;;;;;5051982;28;20698;-70
2022/08/15 13:08:57;;;;;;;3.50;2.50;;;28.60;99.90;;;;;;5051686;28;20527;-69
2022/08/15 13:11:25;;;;;;;4.47;2.90;;;28.40;99.90;;;;;;5051739;28;20191;-69
2022/08/15 13:13:52;;;;;;;3.38;2.85;;;28.00;99.90;;;;;;5051383;28;20206;-71
2022/08/15 13:16:22;;;;;;;4.38;2.92;;;28.10;99.90;;;;;;5033943;28;20234;-68
2022/08/15 13:19:11;;;;;;;5.22;2.80;;;27.70;99.90;;;;;;5051830;28;20194;-69
2022/08/15 13:24:55;;;;;;;3.95;2.88;;;28.10;99.90;;;;;;5051011;28;20214;-69
2022/08/15 13:27:23;;;;;;;4.13;3.03;;;27.80;99.90;;;;;;5051373;28;20195;-69
2022/08/15 13:29:54;;;;;;;4.28;2.90;;;27.80;99.90;;;;;;5051370;28;20191;-69
2022/08/15 13:32:23;;;;;;;3.35;2.63;;;27.60;99.90;;;;;;5051400;28;20199;-70
2022/08/15 13:34:50;;;;;;;6.18;3.00;;;27.70;99.90;;;;;;5051118;28;20202;-69
2022/08/15 13:37:25;;;;;;;3.03;2.72;;;27.60;99.90;;;;;;5051569;28;20222;-66
2022/08/15 13:40:21;;;;;;;4.13;2.83;;;27.20;99.90;;;;;;5050796;28;20256;-69
2022/08/15 13:43:01;;;;;;;4.25;2.75;;;27.30;99.90;;;;;;5051878;28;20505;-66
2022/08/15 13:45:39;;;;;;;2.97;2.53;;;27.10;99.90;;;;;;5051225;28;20218;-69
2022/08/15 13:48:32;;;;;;;3.10;2.50;;;27.20;99.90;;;;;;5051163;28;20222;-68
2022/08/15 13:51:08;;;;;;;3.35;2.58;;;27.20;99.90;;;;;;5050958;28;20198;-68
2022/08/15 13:53:38;;;;;;;2.60;2.40;;;27.70;99.90;;;;;;5050912;28;20663;-68
2022/08/15 13:56:26;;;;;;;3.58;2.35;;;27.60;99.90;;;;;;5050452;28;20647;-69
2022/08/15 13:58:58;;;;;;;3.78;2.65;;;27.40;99.90;;;;;;5050670;28;20199;-68
2022/08/15 14:01:25;;;;;;;2.50;2.30;;;27.30;99.90;;;;;;5050920;28;20198;-68